sensor_id;sensor_type;location;lat;lon;timestamp;pressure;altitude;pressure_sealevel;temperature
61595;BMP280;47397;48.194;11.632;2023-03-17T00:00:34;95900.38;;;1.57
61595;BMP280;47397;48.194;11.632;2023-03-17T00:01:35;95901.88;;;1.46
61595;BMP280;47397;48.194;11.632;2023-03-17T00:02:36;95899.44;;;1.49
61595;BMP280;47397;48.194;11.632;2023-03-17T00:03:38;95898.69;;;1.56
61595;BMP280;47397;48.194;11.632;2023-03-17T00:04:39;95900.97;;;1.38
61595;BMP280;47397;48.194;11.632;2023-03-17T00:05:39;95899.38;;;1.46
61595;BMP280;47397;48.194;11.632;2023-03-17T00:06:40;95894.94;;;1.22
61595;BMP280;47397;48.194;11.632;2023-03-17T00:07:40;95900.91;;;1.32
61595;BMP280;47397;48.194;11.632;2023-03-17T00:08:41;95898.50;;;1.42
61595;BMP280;47397;48.194;11.632;2023-03-17T00:09:42;95889.38;;;1.46
61595;BMP280;47397;48.194;11.632;2023-03-17T00:10:42;95891.88;;;1.46
61595;BMP280;47397;48.194;11.632;2023-03-17T00:11:43;95895.13;;;1.37
61595;BMP280;47397;48.194;11.632;2023-03-17T00:12:44;95896.69;;;1.29
61595;BMP280;47397;48.194;11.632;2023-03-17T00:13:46;95896.75;;;1.35
61595;BMP280;47397;48.194;11.632;2023-03-17T00:14:46;95889.25;;;1.34
61595;BMP280;47397;48.194;11.632;2023-03-17T00:15:53;95888.50;;;1.44
61595;BMP280;47397;48.194;11.632;2023-03-17T00:16:54;95896.03;;;1.44
61595;BMP280;47397;48.194;11.632;2023-03-17T00:17:55;95890.19;;;1.45
61595;BMP280;47397;48.194;11.632;2023-03-17T00:18:56;95887.50;;;1.28
61595;BMP280;47397;48.194;11.632;2023-03-17T00:19:56;95884.94;;;1.23
61595;BMP280;47397;48.194;11.632;2023-03-17T00:20:57;95886.66;;;1.28
61595;BMP280;47397;48.194;11.632;2023-03-17T00:21:57;95889.25;;;1.34
61595;BMP280;47397;48.194;11.632;2023-03-17T00:22:59;95880.19;;;1.46
61595;BMP280;47397;48.194;11.632;2023-03-17T00:24:00;95885.22;;;1.48
61595;BMP280;47397;48.194;11.632;2023-03-17T00:25:00;95877.38;;;1.17
61595;BMP280;47397;48.194;11.632;2023-03-17T00:26:01;95885.03;;;1.31
61595;BMP280;47397;48.194;11.632;2023-03-17T00:27:08;95884.34;;;1.44
61595;BMP280;47397;48.194;11.632;2023-03-17T00:28:15;95877.56;;;1.34
61595;BMP280;47397;48.194;11.632;2023-03-17T00:29:15;95881.69;;;1.29
61595;BMP280;47397;48.194;11.632;2023-03-17T00:30:16;95876.53;;;1.17
61595;BMP280;47397;48.194;11.632;2023-03-17T00:31:20;95877.44;;;1.23
61595;BMP280;47397;48.194;11.632;2023-03-17T00:32:21;95876.66;;;1.28
61595;BMP280;47397;48.194;11.632;2023-03-17T00:33:23;95873.31;;;1.29
61595;BMP280;47397;48.194;11.632;2023-03-17T00:34:24;95874.19;;;1.31
61595;BMP280;47397;48.194;11.632;2023-03-17T00:35:26;95870.78;;;1.24
61595;BMP280;47397;48.194;11.632;2023-03-17T00:36:30;95862.38;;;1.19
61595;BMP280;47397;48.194;11.632;2023-03-17T00:37:31;95866.66;;;1.31
61595;BMP280;47397;48.194;11.632;2023-03-17T00:38:32;95863.22;;;1.21
61595;BMP280;47397;48.194;11.632;2023-03-17T00:39:32;95867.31;;;1.14
61595;BMP280;47397;48.194;11.632;2023-03-17T00:40:32;95864.88;;;1.19
61595;BMP280;47397;48.194;11.632;2023-03-17T00:41:33;95865.75;;;1.22
61595;BMP280;47397;48.194;11.632;2023-03-17T00:42:33;95863.19;;;1.18
61595;BMP280;47397;48.194;11.632;2023-03-17T00:43:34;95867.38;;;1.17
61595;BMP280;47397;48.194;11.632;2023-03-17T00:44:34;95862.41;;;1.22
61595;BMP280;47397;48.194;11.632;2023-03-17T00:45:35;95862.31;;;1.13
61595;BMP280;47397;48.194;11.632;2023-03-17T00:46:38;95874.00;;;1.14
61595;BMP280;47397;48.194;11.632;2023-03-17T00:47:38;95869.03;;;1.17
61595;BMP280;47397;48.194;11.632;2023-03-17T00:48:39;95866.56;;;1.21
61595;BMP280;47397;48.194;11.632;2023-03-17T00:49:40;95866.56;;;1.20
61595;BMP280;47397;48.194;11.632;2023-03-17T00:50:40;95864.88;;;1.19
61595;BMP280;47397;48.194;11.632;2023-03-17T00:51:41;95864.91;;;1.22
61595;BMP280;47397;48.194;11.632;2023-03-17T00:52:43;95855.66;;;1.16
61595;BMP280;47397;48.194;11.632;2023-03-17T00:53:43;95858.16;;;1.16
61595;BMP280;47397;48.194;11.632;2023-03-17T00:54:44;95859.06;;;1.21
61595;BMP280;47397;48.194;11.632;2023-03-17T00:55:44;95851.38;;;1.09
61595;BMP280;47397;48.194;11.632;2023-03-17T00:56:46;95859.06;;;1.23
61595;BMP280;47397;48.194;11.632;2023-03-17T00:57:48;95861.34;;;1.05
61595;BMP280;47397;48.194;11.632;2023-03-17T00:58:48;95852.16;;;1.04
61595;BMP280;47397;48.194;11.632;2023-03-17T00:59:49;95850.34;;;0.92
61595;BMP280;47397;48.194;11.632;2023-03-17T01:00:49;95857.19;;;1.05
61595;BMP280;47397;48.194;11.632;2023-03-17T01:01:52;95858.03;;;1.06
61595;BMP280;47397;48.194;11.632;2023-03-17T01:02:54;95858.91;;;1.09
61595;BMP280;47397;48.194;11.632;2023-03-17T01:03:54;95857.97;;;1.01
61595;BMP280;47397;48.194;11.632;2023-03-17T01:04:55;95852.97;;;1.03
61595;BMP280;47397;48.194;11.632;2023-03-17T01:05:55;95857.97;;;1.01
61595;BMP280;47397;48.194;11.632;2023-03-17T01:06:56;95854.59;;;0.98
61595;BMP280;47397;48.194;11.632;2023-03-17T01:07:57;95851.31;;;1.02
61595;BMP280;47397;48.194;11.632;2023-03-17T01:08:57;95848.03;;;1.07
61595;BMP280;47397;48.194;11.632;2023-03-17T01:09:58;95843.06;;;1.10
61595;BMP280;47397;48.194;11.632;2023-03-17T01:10:58;95847.09;;;0.99
61595;BMP280;47397;48.194;11.632;2023-03-17T01:11:58;95837.81;;;0.90
61595;BMP280;47397;48.194;11.632;2023-03-17T01:12:59;95844.56;;;0.96
61595;BMP280;47397;48.194;11.632;2023-03-17T01:13:59;95842.03;;;0.93
61595;BMP280;47397;48.194;11.632;2023-03-17T01:15:00;95834.56;;;0.96
61595;BMP280;47397;48.194;11.632;2023-03-17T01:16:00;95833.72;;;0.96
61595;BMP280;47397;48.194;11.632;2023-03-17T01:17:02;95837.03;;;0.94
61595;BMP280;47397;48.194;11.632;2023-03-17T01:18:03;95836.28;;;1.02
61595;BMP280;47397;48.194;11.632;2023-03-17T01:19:03;95835.31;;;0.89
61595;BMP280;47397;48.194;11.632;2023-03-17T01:20:05;95832.78;;;0.87
61595;BMP280;47397;48.194;11.632;2023-03-17T01:21:05;95833.59;;;0.85
61595;BMP280;47397;48.194;11.632;2023-03-17T01:22:06;95828.59;;;0.85
61595;BMP280;47397;48.194;11.632;2023-03-17T01:23:07;95826.03;;;0.80
61595;BMP280;47397;48.194;11.632;2023-03-17T01:24:08;95829.38;;;0.81
61595;BMP280;47397;48.194;11.632;2023-03-17T01:25:09;95821.97;;;0.88
61595;BMP280;47397;48.194;11.632;2023-03-17T01:26:09;95819.44;;;0.88
61595;BMP280;47397;48.194;11.632;2023-03-17T01:27:10;95824.41;;;0.85
61595;BMP280;47397;48.194;11.632;2023-03-17T01:28:14;95818.56;;;0.85
61595;BMP280;47397;48.194;11.632;2023-03-17T01:29:15;95814.31;;;0.78
61595;BMP280;47397;48.194;11.632;2023-03-17T01:30:23;95818.56;;;0.83
61595;BMP280;47397;48.194;11.632;2023-03-17T01:31:24;95820.19;;;0.81
61595;BMP280;47397;48.194;11.632;2023-03-17T01:32:25;95813.50;;;0.77
61595;BMP280;47397;48.194;11.632;2023-03-17T01:33:26;95809.16;;;0.67
61595;BMP280;47397;48.194;11.632;2023-03-17T01:34:26;95813.28;;;0.63
61595;BMP280;47397;48.194;11.632;2023-03-17T01:35:27;95816.50;;;0.53
61595;BMP280;47397;48.194;11.632;2023-03-17T01:36:28;95817.44;;;0.63
61595;BMP280;47397;48.194;11.632;2023-03-17T01:37:28;95809.84;;;0.55
61595;BMP280;47397;48.194;11.632;2023-03-17T01:38:29;95810.72;;;0.57
61595;BMP280;47397;48.194;11.632;2023-03-17T01:39:29;95817.34;;;0.54
61595;BMP280;47397;48.194;11.632;2023-03-17T01:40:31;95819.09;;;0.61
61595;BMP280;47397;48.194;11.632;2023-03-17T01:41:32;95809.97;;;0.65
61595;BMP280;47397;48.194;11.632;2023-03-17T01:42:33;95811.69;;;0.69
61595;BMP280;47397;48.194;11.632;2023-03-17T01:43:33;95814.31;;;0.76
61595;BMP280;47397;48.194;11.632;2023-03-17T01:44:34;95808.47;;;0.76
61595;BMP280;47397;48.194;11.632;2023-03-17T01:47:21;95795.88;;;0.73
61595;BMP280;47397;48.194;11.632;2023-03-17T01:48:25;95795.97;;;0.77
61595;BMP280;47397;48.194;11.632;2023-03-17T01:49:27;95801.81;;;0.76
61595;BMP280;47397;48.194;11.632;2023-03-17T01:50:29;95795.13;;;0.77
61595;BMP280;47397;48.194;11.632;2023-03-17T01:51:32;95797.63;;;0.75
61595;BMP280;47397;48.194;11.632;2023-03-17T01:52:35;95796.78;;;0.76
61595;BMP280;47397;48.194;11.632;2023-03-17T01:53:37;95802.44;;;0.63
61595;BMP280;47397;48.194;11.632;2023-03-17T01:54:41;95797.50;;;0.69
61595;BMP280;47397;48.194;11.632;2023-03-17T01:55:44;95796.66;;;0.67
61595;BMP280;47397;48.194;11.632;2023-03-17T01:56:46;95785.81;;;0.67
61595;BMP280;47397;48.194;11.632;2023-03-17T01:57:50;95797.38;;;0.58
61595;BMP280;47397;48.194;11.632;2023-03-17T01:58:53;95793.13;;;0.50
61595;BMP280;47397;48.194;11.632;2023-03-17T01:59:56;95785.50;;;0.42
61595;BMP280;47397;48.194;11.632;2023-03-17T02:00:57;95789.00;;;0.53
61595;BMP280;47397;48.194;11.632;2023-03-17T02:02:00;95787.28;;;0.51
61595;BMP280;47397;48.194;11.632;2023-03-17T02:03:02;95783.19;;;0.56
61595;BMP280;47397;48.194;11.632;2023-03-17T02:04:04;95782.31;;;0.54
61595;BMP280;47397;48.194;11.632;2023-03-17T02:05:07;95786.53;;;0.56
61595;BMP280;47397;48.194;11.632;2023-03-17T02:06:08;95786.59;;;0.61
61595;BMP280;47397;48.194;11.632;2023-03-17T02:07:09;95784.91;;;0.61
61595;BMP280;47397;48.194;11.632;2023-03-17T02:08:11;95783.16;;;0.54
61595;BMP280;47397;48.194;11.632;2023-03-17T02:09:12;95769.00;;;0.55
61595;BMP280;47397;48.194;11.632;2023-03-17T02:10:14;95781.56;;;0.59
61595;BMP280;47397;48.194;11.632;2023-03-17T02:11:16;95767.31;;;0.52
61595;BMP280;47397;48.194;11.632;2023-03-17T02:12:17;95780.38;;;0.33
61595;BMP280;47397;48.194;11.632;2023-03-17T02:13:17;95772.81;;;0.30
61595;BMP280;47397;48.194;11.632;2023-03-17T02:14:18;95772.91;;;0.36
61595;BMP280;47397;48.194;11.632;2023-03-17T02:15:18;95771.44;;;0.49
61595;BMP280;47397;48.194;11.632;2023-03-17T02:16:19;95773.91;;;0.46
61595;BMP280;47397;48.194;11.632;2023-03-17T02:17:21;95770.41;;;0.36
61595;BMP280;47397;48.194;11.632;2023-03-17T02:18:22;95770.66;;;0.54
61595;BMP280;47397;48.194;11.632;2023-03-17T02:19:24;95771.63;;;0.64
61595;BMP280;47397;48.194;11.632;2023-03-17T02:21:23;95768.88;;;0.44
61595;BMP280;47397;48.194;11.632;2023-03-17T02:22:22;95762.00;;;0.29
61595;BMP280;47397;48.194;11.632;2023-03-17T02:23:23;95765.28;;;0.27
61595;BMP280;47397;48.194;11.632;2023-03-17T02:24:31;95760.25;;;0.24
61595;BMP280;47397;48.194;11.632;2023-03-17T02:25:33;95761.78;;;0.13
61595;BMP280;47397;48.194;11.632;2023-03-17T02:26:35;95758.63;;;0.26
61595;BMP280;47397;48.194;11.632;2023-03-17T02:27:38;95758.00;;;0.42
61595;BMP280;47397;48.194;11.632;2023-03-17T02:28:40;95758.09;;;0.50
61595;BMP280;47397;48.194;11.632;2023-03-17T02:29:41;95760.59;;;0.50
61595;BMP280;47397;48.194;11.632;2023-03-17T02:30:42;95749.78;;;0.49
61595;BMP280;47397;48.194;11.632;2023-03-17T02:31:43;95746.44;;;0.50
61595;BMP280;47397;48.194;11.632;2023-03-17T02:32:43;95748.13;;;0.53
61595;BMP280;47397;48.194;11.632;2023-03-17T02:33:44;95753.19;;;0.57
61595;BMP280;47397;48.194;11.632;2023-03-17T02:34:45;95743.97;;;0.53
61595;BMP280;47397;48.194;11.632;2023-03-17T02:35:45;95744.72;;;0.45
61595;BMP280;47397;48.194;11.632;2023-03-17T02:36:46;95746.38;;;0.46
61595;BMP280;47397;48.194;11.632;2023-03-17T02:37:48;95739.75;;;0.49
61595;BMP280;47397;48.194;11.632;2023-03-17T02:38:48;95734.72;;;0.46
61595;BMP280;47397;48.194;11.632;2023-03-17T02:39:49;95745.50;;;0.42
61595;BMP280;47397;48.194;11.632;2023-03-17T02:40:49;95735.53;;;0.44
61595;BMP280;47397;48.194;11.632;2023-03-17T02:41:49;95728.84;;;0.43
61595;BMP280;47397;48.194;11.632;2023-03-17T02:42:50;95734.66;;;0.40
61595;BMP280;47397;48.194;11.632;2023-03-17T02:43:50;95728.81;;;0.38
61595;BMP280;47397;48.194;11.632;2023-03-17T02:44:51;95732.84;;;0.30
61595;BMP280;47397;48.194;11.632;2023-03-17T02:45:51;95729.47;;;0.26
61595;BMP280;47397;48.194;11.632;2023-03-17T02:46:52;95743.66;;;0.29
61595;BMP280;47397;48.194;11.632;2023-03-17T02:47:53;95731.16;;;0.29
61595;BMP280;47397;48.194;11.632;2023-03-17T02:48:54;95738.81;;;0.40
61595;BMP280;47397;48.194;11.632;2023-03-17T02:49:55;95743.81;;;0.40
61595;BMP280;47397;48.194;11.632;2023-03-17T02:50:55;95736.38;;;0.46
61595;BMP280;47397;48.194;11.632;2023-03-17T02:51:56;95737.06;;;0.34
61595;BMP280;47397;48.194;11.632;2023-03-17T02:52:58;95734.69;;;0.43
61595;BMP280;47397;48.194;11.632;2023-03-17T02:53:58;95733.09;;;0.50
61595;BMP280;47397;48.194;11.632;2023-03-17T02:54:59;95735.63;;;0.53
61595;BMP280;47397;48.194;11.632;2023-03-17T02:55:59;95731.44;;;0.50
61595;BMP280;47397;48.194;11.632;2023-03-17T02:57:00;95733.91;;;0.47
61595;BMP280;47397;48.194;11.632;2023-03-17T02:58:00;95741.28;;;0.38
61595;BMP280;47397;48.194;11.632;2023-03-17T02:59:01;95723.69;;;0.32
61595;BMP280;47397;48.194;11.632;2023-03-17T03:00:01;95732.59;;;0.12
61595;BMP280;47397;48.194;11.632;2023-03-17T03:01:02;95734.56;;;0.34
61595;BMP280;47397;48.194;11.632;2023-03-17T03:02:03;95732.09;;;0.37
61595;BMP280;47397;48.194;11.632;2023-03-17T03:03:03;95732.06;;;0.36
61595;BMP280;47397;48.194;11.632;2023-03-17T03:04:04;95731.09;;;0.23
61595;BMP280;47397;48.194;11.632;2023-03-17T03:05:05;95734.38;;;0.20
61595;BMP280;47397;48.194;11.632;2023-03-17T03:06:06;95735.28;;;0.27
61595;BMP280;47397;48.194;11.632;2023-03-17T03:07:07;95726.16;;;0.29
61595;BMP280;47397;48.194;11.632;2023-03-17T03:08:08;95725.19;;;0.19
61595;BMP280;47397;48.194;11.632;2023-03-17T03:09:09;95726.13;;;0.26
61595;BMP280;47397;48.194;11.632;2023-03-17T03:10:10;95729.66;;;0.40
61595;BMP280;47397;48.194;11.632;2023-03-17T03:11:10;95733.00;;;0.42
61595;BMP280;47397;48.194;11.632;2023-03-17T03:12:11;95727.84;;;0.31
61595;BMP280;47397;48.194;11.632;2023-03-17T03:13:11;95725.19;;;0.19
61595;BMP280;47397;48.194;11.632;2023-03-17T03:14:12;95726.91;;;0.23
61595;BMP280;47397;48.194;11.632;2023-03-17T03:15:12;95727.81;;;0.27
61595;BMP280;47397;48.194;11.632;2023-03-17T03:16:14;95730.34;;;0.30
61595;BMP280;47397;48.194;11.632;2023-03-17T03:17:15;95727.72;;;0.21
61595;BMP280;47397;48.194;11.632;2023-03-17T03:18:17;95722.81;;;0.27
61595;BMP280;47397;48.194;11.632;2023-03-17T03:19:17;95733.75;;;0.37
61595;BMP280;47397;48.194;11.632;2023-03-17T03:20:18;95729.47;;;0.28
61595;BMP280;47397;48.194;11.632;2023-03-17T03:21:19;95727.06;;;0.34
61595;BMP280;47397;48.194;11.632;2023-03-17T03:22:19;95730.50;;;0.41
61595;BMP280;47397;48.194;11.632;2023-03-17T03:23:21;95725.53;;;0.44
61595;BMP280;47397;48.194;11.632;2023-03-17T03:24:21;95730.38;;;0.33
61595;BMP280;47397;48.194;11.632;2023-03-17T03:25:22;95727.91;;;0.35
61595;BMP280;47397;48.194;11.632;2023-03-17T03:26:22;95732.88;;;0.33
61595;BMP280;47397;48.194;11.632;2023-03-17T03:27:22;95732.91;;;0.35
61595;BMP280;47397;48.194;11.632;2023-03-17T03:28:23;95731.16;;;0.29
61595;BMP280;47397;48.194;11.632;2023-03-17T03:29:23;95729.56;;;0.34
61595;BMP280;47397;48.194;11.632;2023-03-17T03:30:24;95735.63;;;0.53
61595;BMP280;47397;48.194;11.632;2023-03-17T03:31:24;95729.75;;;0.49
61595;BMP280;47397;48.194;11.632;2023-03-17T03:32:25;95722.28;;;0.51
61595;BMP280;47397;48.194;11.632;2023-03-17T03:33:25;95729.75;;;0.48
61595;BMP280;47397;48.194;11.632;2023-03-17T03:34:26;95723.09;;;0.48
61595;BMP280;47397;48.194;11.632;2023-03-17T03:35:26;95725.59;;;0.50
61595;BMP280;47397;48.194;11.632;2023-03-17T03:36:27;95728.06;;;0.45
61595;BMP280;47397;48.194;11.632;2023-03-17T03:37:27;95731.31;;;0.38
61595;BMP280;47397;48.194;11.632;2023-03-17T03:38:29;95727.16;;;0.40
61595;BMP280;47397;48.194;11.632;2023-03-17T03:39:29;95724.59;;;0.37
61595;BMP280;47397;48.194;11.632;2023-03-17T03:40:30;95726.38;;;0.44
61595;BMP280;47397;48.194;11.632;2023-03-17T03:41:30;95726.44;;;0.50
61595;BMP280;47397;48.194;11.632;2023-03-17T03:42:30;95724.75;;;0.49
61595;BMP280;47397;48.194;11.632;2023-03-17T03:43:31;95726.50;;;0.56
61595;BMP280;47397;48.194;11.632;2023-03-17T03:44:31;95730.72;;;0.60
61595;BMP280;47397;48.194;11.632;2023-03-17T03:45:32;95728.22;;;0.59
61595;BMP280;47397;48.194;11.632;2023-03-17T03:46:32;95724.88;;;0.58
61595;BMP280;47397;48.194;11.632;2023-03-17T03:47:33;95723.91;;;0.49
61595;BMP280;47397;48.194;11.632;2023-03-17T03:48:33;95716.38;;;0.46
61595;BMP280;47397;48.194;11.632;2023-03-17T03:49:33;95720.63;;;0.51
61595;BMP280;47397;48.194;11.632;2023-03-17T03:50:34;95724.00;;;0.56
61595;BMP280;47397;48.194;11.632;2023-03-17T03:51:34;95724.72;;;0.45
61595;BMP280;47397;48.194;11.632;2023-03-17T03:52:35;95726.44;;;0.50
61595;BMP280;47397;48.194;11.632;2023-03-17T03:53:37;95727.31;;;0.54
61595;BMP280;47397;48.194;11.632;2023-03-17T03:54:37;95731.44;;;0.50
61595;BMP280;47397;48.194;11.632;2023-03-17T03:55:38;95729.00;;;0.56
61595;BMP280;47397;48.194;11.632;2023-03-17T03:56:38;95726.56;;;0.61
61595;BMP280;47397;48.194;11.632;2023-03-17T03:57:39;95720.72;;;0.59
61595;BMP280;47397;48.194;11.632;2023-03-17T03:58:39;95720.72;;;0.59
61595;BMP280;47397;48.194;11.632;2023-03-17T03:59:40;95721.53;;;0.59
61595;BMP280;47397;48.194;11.632;2023-03-17T04:00:40;95723.16;;;0.54
61595;BMP280;47397;48.194;11.632;2023-03-17T04:01:40;95725.69;;;0.59
61595;BMP280;47397;48.194;11.632;2023-03-17T04:02:41;95712.38;;;0.60
61595;BMP280;47397;48.194;11.632;2023-03-17T04:03:41;95716.56;;;0.62
61595;BMP280;47397;48.194;11.632;2023-03-17T04:04:41;95705.75;;;0.63
61595;BMP280;47397;48.194;11.632;2023-03-17T04:05:42;95710.75;;;0.63
61595;BMP280;47397;48.194;11.632;2023-03-17T04:06:42;95709.13;;;0.67
61595;BMP280;47397;48.194;11.632;2023-03-17T04:07:43;95704.09;;;0.64
61595;BMP280;47397;48.194;11.632;2023-03-17T04:08:45;95711.44;;;0.50
61595;BMP280;47397;48.194;11.632;2023-03-17T04:09:45;95708.97;;;0.52
61595;BMP280;47397;48.194;11.632;2023-03-17T04:10:46;95704.00;;;0.55
61595;BMP280;47397;48.194;11.632;2023-03-17T04:11:46;95703.19;;;0.59
61595;BMP280;47397;48.194;11.632;2023-03-17T04:12:46;95713.13;;;0.53
61595;BMP280;47397;48.194;11.632;2023-03-17T04:13:47;95707.44;;;0.66
61595;BMP280;47397;48.194;11.632;2023-03-17T04:14:47;95712.50;;;0.72
61595;BMP280;47397;48.194;11.632;2023-03-17T04:15:48;95717.56;;;0.75
61595;BMP280;47397;48.194;11.632;2023-03-17T04:16:48;95712.59;;;0.77
61595;BMP280;47397;48.194;11.632;2023-03-17T04:17:49;95716.78;;;0.79
61595;BMP280;47397;48.194;11.632;2023-03-17T04:18:49;95725.16;;;0.83
61595;BMP280;47397;48.194;11.632;2023-03-17T04:19:49;95712.69;;;0.87
61595;BMP280;47397;48.194;11.632;2023-03-17T04:20:50;95727.75;;;0.93
61595;BMP280;47397;48.194;11.632;2023-03-17T04:21:50;95721.09;;;0.92
61595;BMP280;47397;48.194;11.632;2023-03-17T04:22:51;95725.19;;;0.86
61595;BMP280;47397;48.194;11.632;2023-03-17T04:23:52;95717.78;;;0.95
61595;BMP280;47397;48.194;11.632;2023-03-17T04:24:53;95723.66;;;0.99
61595;BMP280;47397;48.194;11.632;2023-03-17T04:25:53;95716.16;;;1.00
61595;BMP280;47397;48.194;11.632;2023-03-17T04:26:54;95712.69;;;0.87
61595;BMP280;47397;48.194;11.632;2023-03-17T04:27:55;95716.84;;;0.87
61595;BMP280;47397;48.194;11.632;2023-03-17T04:28:55;95715.19;;;0.87
61595;BMP280;47397;48.194;11.632;2023-03-17T04:29:55;95716.06;;;0.91
61595;BMP280;47397;48.194;11.632;2023-03-17T04:30:56;95716.06;;;0.89
61595;BMP280;47397;48.194;11.632;2023-03-17T04:31:56;95716.06;;;0.89
61595;BMP280;47397;48.194;11.632;2023-03-17T04:32:57;95713.56;;;0.91
61595;BMP280;47397;48.194;11.632;2023-03-17T04:33:57;95705.25;;;0.93
61595;BMP280;47397;48.194;11.632;2023-03-17T04:34:57;95710.97;;;0.82
61595;BMP280;47397;48.194;11.632;2023-03-17T04:35:58;95709.28;;;0.79
61595;BMP280;47397;48.194;11.632;2023-03-17T04:36:58;95702.72;;;0.92
61595;BMP280;47397;48.194;11.632;2023-03-17T04:37:59;95706.00;;;0.86
61595;BMP280;47397;48.194;11.632;2023-03-17T04:39:00;95704.34;;;0.87
61595;BMP280;47397;48.194;11.632;2023-03-17T04:40:01;95710.16;;;0.83
61595;BMP280;47397;48.194;11.632;2023-03-17T04:41:01;95714.38;;;0.90
61595;BMP280;47397;48.194;11.632;2023-03-17T04:42:02;95711.03;;;0.86
61595;BMP280;47397;48.194;11.632;2023-03-17T04:43:02;95709.38;;;0.90
61595;BMP280;47397;48.194;11.632;2023-03-17T04:44:03;95718.59;;;0.94
61595;BMP280;47397;48.194;11.632;2023-03-17T04:45:05;95722.75;;;0.93
61595;BMP280;47397;48.194;11.632;2023-03-17T04:46:05;95720.31;;;1.00
61595;BMP280;47397;48.194;11.632;2023-03-17T04:47:06;95710.22;;;0.92
61595;BMP280;47397;48.194;11.632;2023-03-17T04:48:06;95714.44;;;0.94
61595;BMP280;47397;48.194;11.632;2023-03-17T04:49:07;95720.31;;;1.00
61595;BMP280;47397;48.194;11.632;2023-03-17T04:50:08;95710.34;;;1.04
61595;BMP280;47397;48.194;11.632;2023-03-17T04:51:09;95717.00;;;1.02
61595;BMP280;47397;48.194;11.632;2023-03-17T04:52:10;95717.84;;;1.01
61595;BMP280;47397;48.194;11.632;2023-03-17T04:53:10;95716.09;;;0.92
61595;BMP280;47397;48.194;11.632;2023-03-17T04:54:12;95713.56;;;0.92
61595;BMP280;47397;48.194;11.632;2023-03-17T04:55:13;95721.09;;;0.92
61595;BMP280;47397;48.194;11.632;2023-03-17T04:56:13;95716.91;;;0.93
61595;BMP280;47397;48.194;11.632;2023-03-17T04:57:13;95715.25;;;0.92
61595;BMP280;47397;48.194;11.632;2023-03-17T04:58:14;95718.56;;;0.91
61595;BMP280;47397;48.194;11.632;2023-03-17T04:59:14;95713.50;;;0.85
61595;BMP280;47397;48.194;11.632;2023-03-17T05:00:15;95716.06;;;0.89
61595;BMP280;47397;48.194;11.632;2023-03-17T05:01:15;95715.25;;;0.92
61595;BMP280;47397;48.194;11.632;2023-03-17T05:02:16;95709.41;;;0.91
61595;BMP280;47397;48.194;11.632;2023-03-17T05:03:16;95714.38;;;0.90
61595;BMP280;47397;48.194;11.632;2023-03-17T05:04:17;95716.06;;;0.89
61595;BMP280;47397;48.194;11.632;2023-03-17T05:05:17;95724.38;;;0.88
61595;BMP280;47397;48.194;11.632;2023-03-17T05:06:17;95717.69;;;0.86
61595;BMP280;47397;48.194;11.632;2023-03-17T05:07:18;95716.00;;;0.85
61595;BMP280;47397;48.194;11.632;2023-03-17T05:08:18;95719.13;;;0.67
61595;BMP280;47397;48.194;11.632;2023-03-17T05:09:20;95720.81;;;0.68
61595;BMP280;47397;48.194;11.632;2023-03-17T05:10:21;95716.72;;;0.75
61595;BMP280;47397;48.194;11.632;2023-03-17T05:11:21;95720.84;;;0.73
61595;BMP280;47397;48.194;11.632;2023-03-17T05:12:21;95716.66;;;0.70
61595;BMP280;47397;48.194;11.632;2023-03-17T05:13:22;95713.34;;;0.73
61595;BMP280;47397;48.194;11.632;2023-03-17T05:14:23;95720.03;;;0.74
61595;BMP280;47397;48.194;11.632;2023-03-17T05:15:23;95714.25;;;0.76
61595;BMP280;47397;48.194;11.632;2023-03-17T05:16:24;95722.53;;;0.74
61595;BMP280;47397;48.194;11.632;2023-03-17T05:17:24;95716.69;;;0.72
61595;BMP280;47397;48.194;11.632;2023-03-17T05:18:25;95714.13;;;0.67
61595;BMP280;47397;48.194;11.632;2023-03-17T05:19:25;95712.50;;;0.71
61595;BMP280;47397;48.194;11.632;2023-03-17T05:20:25;95718.41;;;0.76
61595;BMP280;47397;48.194;11.632;2023-03-17T05:21:26;95717.63;;;0.80
61595;BMP280;47397;48.194;11.632;2023-03-17T05:22:26;95717.63;;;0.80
61595;BMP280;47397;48.194;11.632;2023-03-17T05:23:27;95713.47;;;0.80
61595;BMP280;47397;48.194;11.632;2023-03-17T05:24:29;95717.56;;;0.75
61595;BMP280;47397;48.194;11.632;2023-03-17T05:25:29;95715.00;;;0.71
61595;BMP280;47397;48.194;11.632;2023-03-17T05:26:30;95715.84;;;0.71
61595;BMP280;47397;48.194;11.632;2023-03-17T05:27:30;95714.19;;;0.73
61595;BMP280;47397;48.194;11.632;2023-03-17T05:28:30;95715.06;;;0.75
61595;BMP280;47397;48.194;11.632;2023-03-17T05:29:31;95714.22;;;0.75
61595;BMP280;47397;48.194;11.632;2023-03-17T05:30:31;95717.63;;;0.80
61595;BMP280;47397;48.194;11.632;2023-03-17T05:31:32;95710.16;;;0.83
61595;BMP280;47397;48.194;11.632;2023-03-17T05:32:32;95713.50;;;0.83
61595;BMP280;47397;48.194;11.632;2023-03-17T05:33:32;95713.31;;;0.70
61595;BMP280;47397;48.194;11.632;2023-03-17T05:34:33;95718.19;;;0.57
61595;BMP280;47397;48.194;11.632;2023-03-17T05:35:33;95714.84;;;0.55
61595;BMP280;47397;48.194;11.632;2023-03-17T05:36:33;95711.63;;;0.67
61595;BMP280;47397;48.194;11.632;2023-03-17T05:37:34;95717.38;;;0.58
61595;BMP280;47397;48.194;11.632;2023-03-17T05:38:34;95710.72;;;0.62
61595;BMP280;47397;48.194;11.632;2023-03-17T05:39:36;95712.38;;;0.58
61595;BMP280;47397;48.194;11.632;2023-03-17T05:40:37;95711.66;;;0.72
61595;BMP280;47397;48.194;11.632;2023-03-17T05:41:37;95717.56;;;0.75
61595;BMP280;47397;48.194;11.632;2023-03-17T05:42:38;95710.91;;;0.76
61595;BMP280;47397;48.194;11.632;2023-03-17T05:43:38;95708.44;;;0.80
61595;BMP280;47397;48.194;11.632;2023-03-17T05:44:38;95710.03;;;0.74
61595;BMP280;47397;48.194;11.632;2023-03-17T05:45:39;95710.97;;;0.80
61595;BMP280;47397;48.194;11.632;2023-03-17T05:46:39;95705.13;;;0.80
61595;BMP280;47397;48.194;11.632;2023-03-17T05:47:40;95703.47;;;0.82
61595;BMP280;47397;48.194;11.632;2023-03-17T05:48:40;95707.47;;;1.54
61595;BMP280;47397;48.194;11.632;2023-03-17T05:49:40;95706.06;;;1.88
61595;BMP280;47397;48.194;11.632;2023-03-17T05:50:41;95691.91;;;1.95
61595;BMP280;47397;48.194;11.632;2023-03-17T05:51:41;95704.75;;;1.28
61595;BMP280;47397;48.194;11.632;2023-03-17T05:52:42;95697.97;;;1.16
61595;BMP280;47397;48.194;11.632;2023-03-17T05:53:42;95694.47;;;1.01